Latest Weather Observations for Larapuna (Eddystone Point)

IDT60801

Issued at 9:21 am EST Monday 19 April 2021 (issued every 10 minutes, with the page automatically refreshed every 10 minutes)

About weather observations | Map of weather stations | Latest weather observations for TAS | Other Formats
Station Details ID: 092045 Name: LARAPUNA (EDDYSTONE POINT) Lat: -40.99 Lon: 148.35 Height: 19.7 m
Data from the previous 72 hours. | See also: Recent months at Larapuna (Eddystone Point)
Date/Time
EST
Temp
°C
App
Temp
°C
Dew
Point
°C
Rel
Hum
%
Delta-T
°C
Wind Press
QNH
hPa
Press
MSL
hPa
Rain since
9am
mm
Dir  Spd
km/h
Gust
km/h
Spd
kts
Gust
kts
19/09:00am 15.3 10.8 14.8 97 0.3 WNW 32 50 17 27 1012.0 1012.0 0.0
19/08:56am 15.0 10.7 14.5 97 0.3 WNW 30 50 16 27 1012.0 1012.0 0.0
19/08:30am 14.5 9.8 14.3 99 0.1 WNW 32 44 17 24 1012.0 1012.0 0.0
19/08:00am 14.1 10.4 13.9 99 0.1 WNW 26 43 14 23 1012.2 1012.2 0.0
19/07:30am 13.2 9.6 13.2 100 0.0 WNW 24 35 13 19 1012.2 1012.2 0.0
19/07:00am 12.2 9.1 12.2 100 0.0 WNW 20 30 11 16 1012.0 1012.0 0.0
19/06:30am 11.7 9.4 11.7 100 0.0 WNW 15 24 8 13 1012.1 1012.1 0.0
19/06:00am 11.7 9.0 11.7 100 0.0 W 17 22 9 12 1012.2 1012.2 0.0
19/05:30am 11.5 8.7 11.5 100 0.0 WNW 17 20 9 11 1012.1 1012.1 0.0
19/05:00am 11.4 9.4 11.4 100 0.0 WNW 13 19 7 10 1012.2 1012.2 0.0
19/04:30am 11.6 8.3 11.6 100 0.0 WNW 20 28 11 15 1012.3 1012.3 0.0
19/04:00am 12.1 9.1 12.1 100 0.0 NW 19 26 10 14 1012.4 1012.4 0.0
19/03:30am 12.2 9.2 12.0 99 0.1 NW 19 26 10 14 1012.6 1012.6 0.0
19/03:00am 12.0 10.1 11.8 99 0.1 NW 13 20 7 11 1012.6 1012.6 0.0
19/02:30am 12.2 10.0 12.0 99 0.1 W 15 24 8 13 1012.9 1012.9 0.0
19/02:00am 11.7 9.7 11.5 99 0.1 WNW 13 19 7 10 1013.1 1013.1 0.0
19/01:30am 12.0 10.1 11.8 99 0.1 W 13 22 7 12 1013.6 1013.6 0.0
19/01:00am 12.5 9.3 12.0 97 0.3 WNW 20 28 11 15 1013.5 1013.5 0.0
19/12:30am 12.4 10.2 12.2 99 0.1 WNW 15 28 8 15 1013.4 1013.4 0.0
19/12:00am 12.8 9.8 12.6 99 0.1 WNW 20 30 11 16 1013.7 1013.7 0.0
 
Date/Time
EST
Temp
°C
App
Temp
°C
Dew
Point
°C
Rel
Hum
%
Delta-T
°C
Wind Press
QNH
hPa
Press
MSL
hPa
Rain since
9am
mm
Dir  Spd
km/h
Gust
km/h
Spd
kts
Gust
kts
18/11:30pm 13.2 8.8 13.0 99 0.1 WNW 28 37 15 20 1013.9 1013.9 0.0
18/11:00pm 13.2 9.2 13.0 99 0.1 WNW 26 35 14 19 1014.2 1014.2 0.0
18/10:30pm 13.0 8.2 12.8 99 0.1 WNW 30 41 16 22 1014.1 1014.1 0.0
18/10:06pm 13.1 8.7 12.9 99 0.1 WNW 28 46 15 25 1014.0 1014.0 0.0
18/10:00pm 13.2 8.1 13.0 99 0.1 WNW 32 46 17 25 1014.0 1014.0 0.0
18/09:30pm 13.5 9.7 13.5 100 0.0 WNW 26 39 14 21 1014.3 1014.3 0.0
18/09:00pm 13.8 9.7 13.8 100 0.0 WNW 28 41 15 22 1014.5 1014.5 0.0
18/08:30pm 14.0 10.3 14.0 100 0.0 WNW 26 39 14 21 1014.4 1014.4 0.0
18/08:00pm 14.1 9.3 14.1 100 0.0 WNW 32 43 17 23 1014.4 1014.4 0.0
18/07:30pm 14.0 9.6 14.0 100 0.0 WNW 30 43 16 23 1014.4 1014.4 0.0
18/07:04pm 14.1 9.1 14.1 100 0.0 WNW 33 52 18 28 1014.3 1014.3 0.0
18/07:00pm 14.2 8.5 14.2 100 0.0 WNW 37 52 20 28 1014.2 1014.2 0.0
18/06:30pm 14.3 9.0 14.3 100 0.0 WNW 35 52 19 28 1013.9 1013.9 0.0
18/06:22pm 14.3 10.0 14.3 100 0.0 WNW 30 52 16 28 1013.9 1013.9 0.0
18/06:00pm 14.4 9.7 14.4 100 0.0 WNW 32 46 17 25 1013.7 1013.7 0.0
18/05:30pm 14.8 10.1 14.8 100 0.0 WNW 33 44 18 24 1013.5 1013.5 0.0
18/05:00pm 15.4 10.5 15.2 99 0.1 WNW 35 50 19 27 1013.2 1013.2 0.0
18/04:30pm 16.1 10.9 15.6 97 0.3 WNW 37 56 20 30 1013.2 1013.2 0.0
18/04:10pm 16.4 10.1 15.6 95 0.5 WNW 43 63 23 34 1012.8 1012.8 0.0
18/04:00pm 16.5 10.1 15.4 93 0.6 WNW 43 59 23 32 1012.9 1012.9 0.0
18/03:30pm 17.1 11.8 15.4 90 1.0 WNW 37 57 20 31 1013.1 1013.1 0.0
18/03:28pm 17.1 12.2 15.3 89 1.0 WNW 35 57 19 31 1013.2 1013.2 0.0
18/03:00pm 17.6 12.9 15.8 89 1.1 WNW 35 50 19 27 1013.5 1013.5 0.0
18/02:30pm 18.1 13.6 15.4 84 1.6 WNW 33 50 18 27 1013.5 1013.5 0.0
18/02:00pm 18.1 12.9 15.5 85 1.5 WNW 37 48 20 26 1013.7 1013.7 0.0
18/01:30pm 18.6 15.5 15.5 82 1.8 WNW 26 39 14 21 1014.2 1014.2 0.0
18/01:00pm 18.7 15.8 15.2 80 2.1 WNW 24 35 13 19 1014.6 1014.6 0.0
18/12:30pm 19.1 16.0 15.6 80 2.1 WNW 26 39 14 21 1014.9 1014.9 0.0
18/12:00pm 17.6 13.3 14.5 82 1.8 WNW 30 39 16 21 1015.6 1015.6 0.0
18/11:30am 17.5 13.4 15.0 85 1.5 WNW 30 39 16 21 1016.0 1016.0 0.0
18/11:00am 16.8 12.9 14.4 86 1.4 WNW 28 37 15 20 1016.3 1016.3 0.0
18/10:30am 16.4 12.7 13.9 85 1.4 WNW 26 35 14 19 1016.5 1016.5 0.0
18/10:00am 15.8 11.9 14.3 91 0.9 WNW 28 39 15 21 1016.6 1016.6 0.0
18/09:30am 15.5 12.5 14.7 95 0.5 WNW 24 39 13 21 1016.5 1016.5 0.0
18/09:00am 14.6 12.5 13.6 94 0.6 WNW 17 24 9 13 1016.9 1016.9 0.0
18/08:30am 14.2 13.0 14.0 99 0.1 NW 13 20 7 11 1016.9 1016.9 0.0
18/08:00am 12.7 9.9 12.5 99 0.1 WNW 19 30 10 16 1016.4 1016.4 0.0
18/07:30am 11.6 10.4 11.6 100 0.0 W 9 20 5 11 1016.3 1016.3 0.0
18/07:00am 11.1 10.3 11.1 100 0.0 WNW 6 15 3 8 1016.2 1016.2 0.0
18/06:30am 10.8 9.9 10.8 100 0.0 ENE 6 7 3 4 1016.3 1016.3 0.0
18/06:00am 11.1 10.1 11.1 100 0.0 WNW 7 13 4 7 1016.3 1016.3 0.0
18/05:30am 11.3 10.0 11.3 100 0.0 WNW 9 13 5 7 1016.4 1016.4 0.0
18/05:00am 11.7 10.5 11.7 100 0.0 N 9 15 5 8 1016.3 1016.3 0.0
18/04:30am 11.9 9.3 11.9 100 0.0 WNW 17 32 9 17 1016.4 1016.4 0.0
18/04:00am 12.0 9.4 12.0 100 0.0 WNW 17 26 9 14 1016.4 1016.4 0.0
18/03:30am 12.4 9.4 12.4 100 0.0 W 20 33 11 18 1016.2 1016.2 0.0
18/03:00am 12.5 9.5 12.5 100 0.0 WNW 20 33 11 18 1016.4 1016.4 0.0
18/02:30am 12.4 11.8 12.4 100 0.0 WNW 7 20 4 11 1016.8 1016.8 0.0
18/02:00am 12.6 10.6 12.6 100 0.0 NW 15 35 8 19 1017.0 1017.0 0.0
18/01:30am 12.8 8.7 12.8 100 0.0 WNW 26 44 14 24 1017.1 1017.1 0.0
18/01:00am 13.0 7.9 13.0 100 0.0 WNW 32 44 17 24 1016.9 1016.9 0.0
18/12:30am 13.1 10.5 13.1 100 0.0 WNW 19 35 10 19 1017.0 1017.0 0.0
18/12:00am 12.9 10.2 12.9 100 0.0 WNW 19 26 10 14 1017.4 1017.4 0.0
 
Date/Time
EST
Temp
°C
App
Temp
°C
Dew
Point
°C
Rel
Hum
%
Delta-T
°C
Wind Press
QNH
hPa
Press
MSL
hPa
Rain since
9am
mm
Dir  Spd
km/h
Gust
km/h
Spd
kts
Gust
kts
17/11:30pm 12.8 9.1 12.8 100 0.0 WNW 24 33 13 18 1017.5 1017.5 0.0
17/11:00pm 13.0 10.1 13.0 100 0.0 NW 20 30 11 16 1017.8 1017.8 0.0
17/10:30pm 13.2 10.0 13.2 100 0.0 NW 22 30 12 16 1018.0 1018.0 0.0
17/10:00pm 13.0 10.1 13.0 100 0.0 WNW 20 35 11 19 1018.3 1018.3 0.0
17/09:30pm 12.9 10.0 12.9 100 0.0 WNW 20 26 11 14 1018.4 1018.4 0.0
17/09:00pm 13.5 10.4 13.5 100 0.0 WNW 22 33 12 18 1018.4 1018.4 0.0
17/08:30pm 13.7 10.3 13.7 100 0.0 WNW 24 30 13 16 1018.2 1018.2 0.0
17/08:00pm 13.7 10.7 13.7 100 0.0 W 22 30 12 16 1018.2 1018.2 0.0
17/07:30pm 13.9 10.6 13.9 100 0.0 W 24 35 13 19 1018.1 1018.1 0.0
17/07:00pm 14.3 11.1 14.3 100 0.0 W 24 39 13 21 1018.2 1018.2 0.0
17/06:30pm 14.6 10.8 14.6 100 0.0 WNW 28 35 15 19 1017.9 1017.9 0.0
17/06:00pm 14.7 11.7 14.7 100 0.0 W 24 37 13 20 1017.8 1017.8 0.0
17/05:33pm 15.0 10.9 14.8 99 0.1 WNW 30 48 16 26 1017.4 1017.4 0.0
17/05:30pm 15.0 10.5 14.8 99 0.1 WNW 32 48 17 26 1017.4 1017.4 0.0
17/05:00pm 15.7 11.2 15.5 99 0.1 W 33 46 18 25 1017.2 1017.2 0.0
17/04:40pm 16.0 11.5 15.4 96 0.3 WNW 33 52 18 28 1017.1 1017.1 0.0
17/04:30pm 16.2 11.6 15.2 94 0.6 WNW 33 48 18 26 1017.0 1017.0 0.0
17/04:00pm 16.4 11.4 15.1 92 0.8 W 35 54 19 29 1017.0 1017.0 0.0
17/03:30pm 16.8 11.9 14.4 86 1.4 W 33 54 18 29 1017.2 1017.2 0.0
17/03:21pm 17.1 11.8 14.2 83 1.7 W 35 54 19 29 1017.1 1017.1 0.0
17/03:00pm 17.5 12.8 14.2 81 1.9 WNW 32 44 17 24 1017.1 1017.1 0.0
17/02:30pm 17.6 12.6 14.1 80 2.0 WNW 33 46 18 25 1017.2 1017.2 0.0
17/02:17pm 17.4 12.4 13.5 78 2.2 WNW 32 50 17 27 1017.2 1017.2 0.0
17/02:00pm 17.6 12.2 13.9 79 2.1 WNW 35 48 19 26 1017.2 1017.2 0.0
17/01:39pm 17.7 12.3 13.8 78 2.2 WNW 35 54 19 29 1017.4 1017.4 0.0
17/01:30pm 17.6 10.8 13.1 75 2.5 WNW 41 52 22 28 1017.5 1017.5 0.0
17/01:00pm 18.2 13.5 13.1 72 2.9 W 30 43 16 23 1017.8 1017.8 0.0
17/12:30pm 17.9 11.5 12.1 69 3.2 W 37 50 20 27 1018.1 1018.1 0.0
17/12:00pm 17.7 12.8 12.6 72 2.8 W 30 41 16 22 1018.7 1018.7 0.0
17/11:30am 17.0 12.1 11.3 69 3.1 W 28 41 15 22 1019.1 1019.1 0.0
17/11:00am 16.2 10.7 10.7 70 2.9 W 30 50 16 27 1019.2 1019.2 0.0
17/10:44am 16.4 11.7 12.0 75 2.4 W 28 46 15 25 1019.3 1019.3 0.0
17/10:30am 15.6 10.2 10.8 73 2.6 W 30 41 16 22 1019.4 1019.4 0.0
17/10:00am 14.8 9.4 10.8 77 2.1 W 30 46 16 25 1019.7 1019.7 0.0
17/09:48am 14.5 9.6 11.3 81 1.7 W 28 46 15 25 1019.8 1019.8 0.0
17/09:30am 14.0 9.0 11.0 82 1.6 W 28 39 15 21 1019.9 1019.9 0.0
17/09:00am 12.6 8.9 10.3 86 1.2 WSW 20 28 11 15 1020.1 1020.1 0.0
17/08:30am 11.1 7.5 9.7 91 0.7 WSW 19 28 10 15 1020.0 1020.0 0.0
17/08:00am 11.6 8.4 9.9 89 0.9 WSW 17 28 9 15 1020.0 1020.0 0.0
17/07:30am 10.4 7.5 9.8 96 0.3 WSW 15 26 8 14 1019.9 1019.9 0.0
17/07:00am 9.1 6.4 9.0 99 0.0 WSW 13 17 7 9 1019.7 1019.7 0.0
17/06:30am 9.5 6.5 9.4 99 0.0 WSW 15 22 8 12 1019.4 1019.4 0.0
17/06:00am 9.2 6.5 9.1 99 0.0 WSW 13 20 7 11 1019.1 1019.1 0.0
17/05:30am 9.2 6.2 9.1 99 0.0 WSW 15 22 8 12 1019.2 1019.2 0.0
17/05:00am 9.2 5.7 8.9 98 0.1 W 17 24 9 13 1019.2 1019.2 0.0
17/04:30am 9.3 7.3 8.8 97 0.2 W 9 17 5 9 1018.9 1018.9 0.0
17/04:00am 9.4 5.6 8.9 97 0.2 WNW 19 32 10 17 1018.7 1018.7 0.0
17/03:30am 9.7 5.3 8.8 94 0.4 WNW 22 39 12 21 1018.5 1018.5 0.0
17/03:00am 9.8 6.3 8.7 93 0.5 WNW 17 26 9 14 1018.6 1018.6 0.0
17/02:30am 9.3 5.1 8.2 93 0.5 W 20 35 11 19 1018.7 1018.7 0.0
17/02:00am 9.1 5.5 8.3 95 0.4 W 17 30 9 16 1019.1 1019.1 0.0
17/01:30am 9.2 5.1 8.6 96 0.3 WNW 20 30 11 16 1019.3 1019.3 0.0
17/01:00am 9.0 4.0 8.2 95 0.4 W 24 39 13 21 1019.4 1019.4 0.0
17/12:30am 9.2 4.3 8.6 96 0.3 WNW 24 33 13 18 1019.5 1019.5 0.0
17/12:00am 9.7 3.7 8.8 94 0.4 WNW 30 39 16 21 1019.5 1019.5 0.0
 
Date/Time
EST
Temp
°C
App
Temp
°C
Dew
Point
°C
Rel
Hum
%
Delta-T
°C
Wind Press
QNH
hPa
Press
MSL
hPa
Rain since
9am
mm
Dir  Spd
km/h
Gust
km/h
Spd
kts
Gust
kts
16/11:30pm 9.7 4.1 8.9 95 0.4 WNW 28 39 15 21 1019.7 1019.7 0.0
16/11:00pm 9.2 3.9 8.3 94 0.4 W 26 35 14 19 1019.9 1019.9 0.0
16/10:30pm 9.0 5.0 8.9 99 0.0 WNW 20 30 11 16 1020.2 1020.2 0.0
16/10:00pm 9.1 5.3 9.0 99 0.0 NW 19 24 10 13 1020.3 1020.3 0.0
16/09:30pm 9.4 6.0 9.3 99 0.0 NW 17 20 9 11 1020.3 1020.3 0.0
16/09:00pm 9.9 6.3 9.8 99 0.1 NW 19 22 10 12 1020.3 1020.3 0.0
16/08:30pm 9.9 6.1 9.8 99 0.1 WNW 20 26 11 14 1020.2 1020.2 0.0
16/08:00pm 10.3 6.8 10.1 99 0.1 WNW 19 24 10 13 1020.2 1020.2 0.0
16/07:30pm 10.6 6.6 10.4 99 0.1 NW 22 28 12 15 1020.2 1020.2 0.0
16/07:00pm 10.3 7.5 10.1 99 0.1 WNW 15 20 8 11 1020.2 1020.2 0.0
16/06:30pm 10.5 7.4 10.2 98 0.2 WNW 17 20 9 11 1020.0 1020.0 0.0
16/06:00pm 11.0 7.8 9.8 92 0.6 NW 17 20 9 11 1019.8 1019.8 0.0
16/05:30pm 11.6 8.8 9.9 89 0.9 NW 15 20 8 11 1019.7 1019.7 0.0
16/05:00pm 12.6 8.1 10.0 84 1.3 NW 24 35 13 19 1019.6 1019.6 0.0
16/04:30pm 13.1 7.3 9.5 79 1.8 NW 30 39 16 21 1019.6 1019.6 0.0
16/04:00pm 14.0 8.5 9.0 72 2.5 NW 28 35 15 19 1019.6 1019.6 0.0
16/03:30pm 14.6 9.3 8.5 67 3.1 NW 26 33 14 18 1019.6 1019.6 0.0
16/03:00pm 15.1 10.6 8.6 65 3.3 NW 22 30 12 16 1019.6 1019.6 0.0
16/02:30pm 15.6 11.7 9.3 66 3.2 NNW 20 28 11 15 1019.5 1019.5 0.0
16/02:00pm 15.6 12.0 9.7 68 3.1 NNW 19 26 10 14 1019.7 1019.7 0.0
16/01:30pm 15.8 11.4 8.8 63 3.6 NNW 22 32 12 17 1019.8 1019.8 0.0
16/01:00pm 15.1 10.3 8.8 66 3.2 NNW 24 32 13 17 1019.9 1019.9 0.0
16/12:30pm 15.3 10.4 8.3 63 3.5 NNW 24 30 13 16 1020.1 1020.1 0.0
16/12:00pm 15.0 10.7 8.0 63 3.5 N 20 28 11 15 1020.4 1020.4 0.0
16/11:30am 15.3 11.6 7.8 61 3.7 NNW 17 26 9 14 1020.5 1020.5 0.0
16/11:00am 15.2 12.3 8.2 63 3.5 NW 13 20 7 11 1020.6 1020.6 0.0
16/10:30am 13.5 10.2 6.6 63 3.3 W 13 19 7 10 1020.6 1020.6 0.0
16/10:00am 13.1 9.2 6.9 66 3.0 W 17 24 9 13 1020.4 1020.4 0.0
16/09:30am 12.7 9.5 6.7 67 2.9 W 13 20 7 11 1020.2 1020.2 0.0

Other formats

Comma delimited format used in spreadsheet applications
http://www.bom.gov.au/fwo/IDT60801/IDT60801.94983.axf

JavaScript Object Notation format (JSON) in row-major order
http://www.bom.gov.au/fwo/IDT60801/IDT60801.94983.json

Data quality

Most of these data are generated automatically and are frequently updated. Quality checks on data are not normally performed. It is possible for incorrect values to appear. Refer to information at About Latest Weather Observations and please check the disclaimer before using these data.